Terminal Aerodrome Forecast
Issued by NWS

Home | Current Version | Previous Version | Text Only | Print | Product List | Glossary On
Versions: 1 2 3 4 5 6 7 8 9 10 11 12 13 14 15 16 17 18 19 20 21 22 23 24 25 26 27 28 29
000
FTUS45 KPSR 230500
TAFPHX
TAF
KPHX 230520Z 2306/2406 24010KT P6SM SCT220
     FM231200 VRB05KT P6SM SKC
     FM231700 24008KT P6SM SKC
     FM232100 27011G18KT P6SM SKC
     FM240300 29005KT P6SM SKC=

USA.gov is the U.S. government's official web portal to all federal, state and local government web resources and services.